sensor_id;sensor_type;location;lat;lon;timestamp;P1;durP1;ratioP1;P2;durP2;ratioP2
22070;SDS011;11200;51.488;6.668;2023-05-10T00:01:58;2.92;;;2.50;;
22070;SDS011;11200;51.488;6.668;2023-05-10T00:04:23;3.08;;;2.80;;
22070;SDS011;11200;51.488;6.668;2023-05-10T00:06:52;3.13;;;2.80;;
22070;SDS011;11200;51.488;6.668;2023-05-10T00:09:18;2.90;;;2.45;;
22070;SDS011;11200;51.488;6.668;2023-05-10T00:11:44;3.10;;;2.80;;
22070;SDS011;11200;51.488;6.668;2023-05-10T00:14:09;3.00;;;2.70;;
22070;SDS011;11200;51.488;6.668;2023-05-10T00:16:37;2.80;;;2.60;;
22070;SDS011;11200;51.488;6.668;2023-05-10T00:19:02;4.05;;;3.38;;
22070;SDS011;11200;51.488;6.668;2023-05-10T00:21:28;2.78;;;2.58;;
22070;SDS011;11200;51.488;6.668;2023-05-10T00:23:54;3.47;;;2.70;;
22070;SDS011;11200;51.488;6.668;2023-05-10T00:26:19;3.75;;;2.70;;
22070;SDS011;11200;51.488;6.668;2023-05-10T00:28:45;3.10;;;2.80;;
22070;SDS011;11200;51.488;6.668;2023-05-10T00:31:11;3.95;;;3.00;;
22070;SDS011;11200;51.488;6.668;2023-05-10T00:33:36;2.95;;;2.70;;
22070;SDS011;11200;51.488;6.668;2023-05-10T00:36:02;2.60;;;2.40;;
22070;SDS011;11200;51.488;6.668;2023-05-10T00:38:28;3.42;;;2.97;;
22070;SDS011;11200;51.488;6.668;2023-05-10T00:40:54;3.75;;;3.10;;
22070;SDS011;11200;51.488;6.668;2023-05-10T00:43:19;2.95;;;2.70;;
22070;SDS011;11200;51.488;6.668;2023-05-10T00:45:45;3.53;;;2.78;;
22070;SDS011;11200;51.488;6.668;2023-05-10T00:48:11;3.15;;;2.85;;
22070;SDS011;11200;51.488;6.668;2023-05-10T00:50:37;3.42;;;3.13;;
22070;SDS011;11200;51.488;6.668;2023-05-10T00:53:03;3.60;;;3.28;;
22070;SDS011;11200;51.488;6.668;2023-05-10T00:55:29;3.25;;;2.78;;
22070;SDS011;11200;51.488;6.668;2023-05-10T00:57:55;3.42;;;3.13;;
22070;SDS011;11200;51.488;6.668;2023-05-10T01:00:21;3.30;;;2.97;;
22070;SDS011;11200;51.488;6.668;2023-05-10T01:02:47;3.00;;;2.60;;
22070;SDS011;11200;51.488;6.668;2023-05-10T01:05:12;3.28;;;2.97;;
22070;SDS011;11200;51.488;6.668;2023-05-10T01:07:38;4.53;;;3.13;;
22070;SDS011;11200;51.488;6.668;2023-05-10T01:10:05;3.25;;;2.95;;
22070;SDS011;11200;51.488;6.668;2023-05-10T01:12:32;3.80;;;3.13;;
22070;SDS011;11200;51.488;6.668;2023-05-10T01:14:59;3.17;;;2.88;;
22070;SDS011;11200;51.488;6.668;2023-05-10T01:17:26;3.30;;;3.00;;
22070;SDS011;11200;51.488;6.668;2023-05-10T01:19:52;3.33;;;3.00;;
22070;SDS011;11200;51.488;6.668;2023-05-10T01:46:42;3.35;;;3.05;;
22070;SDS011;11200;51.488;6.668;2023-05-10T01:49:31;3.30;;;3.00;;
22070;SDS011;11200;51.488;6.668;2023-05-10T01:52:03;3.05;;;2.75;;
22070;SDS011;11200;51.488;6.668;2023-05-10T01:54:34;3.30;;;3.00;;
22070;SDS011;11200;51.488;6.668;2023-05-10T01:57:03;3.78;;;3.00;;
22070;SDS011;11200;51.488;6.668;2023-05-10T01:59:34;3.65;;;3.20;;
22070;SDS011;11200;51.488;6.668;2023-05-10T02:02:02;4.30;;;2.90;;
22070;SDS011;11200;51.488;6.668;2023-05-10T02:04:29;3.35;;;2.95;;
22070;SDS011;11200;51.488;6.668;2023-05-10T02:06:56;3.20;;;2.90;;
22070;SDS011;11200;51.488;6.668;2023-05-10T02:09:22;4.20;;;3.03;;
22070;SDS011;11200;51.488;6.668;2023-05-10T02:11:50;3.90;;;3.50;;
22070;SDS011;11200;51.488;6.668;2023-05-10T02:14:16;3.47;;;3.17;;
22070;SDS011;11200;51.488;6.668;2023-05-10T02:16:43;3.47;;;3.17;;
22070;SDS011;11200;51.488;6.668;2023-05-10T02:19:11;3.40;;;3.08;;
22070;SDS011;11200;51.488;6.668;2023-05-10T02:21:39;3.47;;;3.17;;
22070;SDS011;11200;51.488;6.668;2023-05-10T02:24:05;3.40;;;3.10;;
22070;SDS011;11200;51.488;6.668;2023-05-10T02:26:32;3.20;;;2.90;;
22070;SDS011;11200;51.488;6.668;2023-05-10T02:28:59;3.65;;;3.22;;
22070;SDS011;11200;51.488;6.668;2023-05-10T02:31:28;3.97;;;3.40;;
22070;SDS011;11200;51.488;6.668;2023-05-10T02:33:55;4.00;;;3.53;;
22070;SDS011;11200;51.488;6.668;2023-05-10T02:36:24;3.85;;;3.45;;
22070;SDS011;11200;51.488;6.668;2023-05-10T02:38:52;4.38;;;3.50;;
22070;SDS011;11200;51.488;6.668;2023-05-10T02:41:19;4.20;;;3.60;;
22070;SDS011;11200;51.488;6.668;2023-05-10T02:43:50;3.50;;;3.20;;
22070;SDS011;11200;51.488;6.668;2023-05-10T02:46:18;4.55;;;3.70;;
22070;SDS011;11200;51.488;6.668;2023-05-10T02:48:44;4.20;;;3.80;;
22070;SDS011;11200;51.488;6.668;2023-05-10T02:51:09;4.53;;;3.40;;
22070;SDS011;11200;51.488;6.668;2023-05-10T02:53:40;4.15;;;3.15;;
22070;SDS011;11200;51.488;6.668;2023-05-10T02:56:13;3.70;;;3.20;;
22070;SDS011;11200;51.488;6.668;2023-05-10T02:58:44;3.75;;;3.35;;
22070;SDS011;11200;51.488;6.668;2023-05-10T03:01:11;3.33;;;2.95;;
22070;SDS011;11200;51.488;6.668;2023-05-10T03:03:38;3.47;;;3.17;;
22070;SDS011;11200;51.488;6.668;2023-05-10T03:06:05;3.50;;;3.20;;
22070;SDS011;11200;51.488;6.668;2023-05-10T03:08:30;5.07;;;3.65;;
22070;SDS011;11200;51.488;6.668;2023-05-10T03:14:07;3.30;;;3.00;;
22070;SDS011;11200;51.488;6.668;2023-05-10T03:16:46;3.53;;;3.22;;
22070;SDS011;11200;51.488;6.668;2023-05-10T03:19:19;3.63;;;3.10;;
22070;SDS011;11200;51.488;6.668;2023-05-10T03:21:52;3.92;;;3.42;;
22070;SDS011;11200;51.488;6.668;2023-05-10T03:24:20;3.47;;;3.17;;
22070;SDS011;11200;51.488;6.668;2023-05-10T03:26:48;3.78;;;2.92;;
22070;SDS011;11200;51.488;6.668;2023-05-10T03:29:15;3.70;;;3.22;;
22070;SDS011;11200;51.488;6.668;2023-05-10T03:31:42;3.33;;;3.03;;
22070;SDS011;11200;51.488;6.668;2023-05-10T03:34:07;3.45;;;3.15;;
22070;SDS011;11200;51.488;6.668;2023-05-10T03:36:37;3.45;;;3.10;;
22070;SDS011;11200;51.488;6.668;2023-05-10T03:39:03;3.65;;;3.08;;
22070;SDS011;11200;51.488;6.668;2023-05-10T03:41:29;3.95;;;3.20;;
22070;SDS011;11200;51.488;6.668;2023-05-10T03:43:55;3.47;;;2.70;;
22070;SDS011;11200;51.488;6.668;2023-05-10T03:46:20;3.58;;;2.90;;
22070;SDS011;11200;51.488;6.668;2023-05-10T03:48:46;3.67;;;3.33;;
22070;SDS011;11200;51.488;6.668;2023-05-10T03:51:11;3.70;;;3.20;;
22070;SDS011;11200;51.488;6.668;2023-05-10T03:53:37;3.50;;;3.20;;
22070;SDS011;11200;51.488;6.668;2023-05-10T03:56:03;3.85;;;3.38;;
22070;SDS011;11200;51.488;6.668;2023-05-10T03:58:29;3.78;;;3.30;;
22070;SDS011;11200;51.488;6.668;2023-05-10T04:00:54;4.78;;;3.50;;
22070;SDS011;11200;51.488;6.668;2023-05-10T04:03:20;3.65;;;3.35;;
22070;SDS011;11200;51.488;6.668;2023-05-10T04:05:45;3.40;;;3.05;;
22070;SDS011;11200;51.488;6.668;2023-05-10T04:08:11;3.75;;;3.20;;
22070;SDS011;11200;51.488;6.668;2023-05-10T04:10:37;3.80;;;3.40;;
22070;SDS011;11200;51.488;6.668;2023-05-10T04:13:02;3.53;;;3.15;;
22070;SDS011;11200;51.488;6.668;2023-05-10T04:15:28;4.13;;;3.55;;
22070;SDS011;11200;51.488;6.668;2023-05-10T04:17:53;4.35;;;3.35;;
22070;SDS011;11200;51.488;6.668;2023-05-10T04:20:19;4.60;;;3.60;;
22070;SDS011;11200;51.488;6.668;2023-05-10T04:22:45;5.20;;;4.15;;
22070;SDS011;11200;51.488;6.668;2023-05-10T04:25:10;4.07;;;3.67;;
22070;SDS011;11200;51.488;6.668;2023-05-10T04:27:36;4.38;;;3.50;;
22070;SDS011;11200;51.488;6.668;2023-05-10T04:30:02;3.72;;;3.25;;
22070;SDS011;11200;51.488;6.668;2023-05-10T04:32:28;4.05;;;3.25;;
22070;SDS011;11200;51.488;6.668;2023-05-10T04:34:54;3.78;;;3.38;;
22070;SDS011;11200;51.488;6.668;2023-05-10T04:37:19;4.28;;;3.30;;
22070;SDS011;11200;51.488;6.668;2023-05-10T04:39:46;4.10;;;3.70;;
22070;SDS011;11200;51.488;6.668;2023-05-10T04:42:12;4.00;;;3.60;;
22070;SDS011;11200;51.488;6.668;2023-05-10T04:44:39;4.90;;;4.00;;
22070;SDS011;11200;51.488;6.668;2023-05-10T04:47:05;4.35;;;3.80;;
22070;SDS011;11200;51.488;6.668;2023-05-10T04:49:31;3.90;;;3.50;;
22070;SDS011;11200;51.488;6.668;2023-05-10T04:52:02;4.15;;;3.75;;
22070;SDS011;11200;51.488;6.668;2023-05-10T04:54:28;5.13;;;4.03;;
22070;SDS011;11200;51.488;6.668;2023-05-10T04:56:53;4.38;;;3.95;;
22070;SDS011;11200;51.488;6.668;2023-05-10T04:59:19;5.03;;;4.10;;
22070;SDS011;11200;51.488;6.668;2023-05-10T05:01:45;4.40;;;3.85;;
22070;SDS011;11200;51.488;6.668;2023-05-10T05:04:10;4.45;;;4.05;;
22070;SDS011;11200;51.488;6.668;2023-05-10T05:06:36;4.30;;;3.58;;
22070;SDS011;11200;51.488;6.668;2023-05-10T05:09:02;4.80;;;3.75;;
22070;SDS011;11200;51.488;6.668;2023-05-10T05:11:27;4.53;;;3.80;;
22070;SDS011;11200;51.488;6.668;2023-05-10T05:13:53;4.53;;;4.13;;
22070;SDS011;11200;51.488;6.668;2023-05-10T05:16:19;4.20;;;3.80;;
22070;SDS011;11200;51.488;6.668;2023-05-10T05:18:44;4.32;;;3.90;;
22070;SDS011;11200;51.488;6.668;2023-05-10T05:21:16;4.70;;;4.20;;
22070;SDS011;11200;51.488;6.668;2023-05-10T05:23:43;5.25;;;4.10;;
22070;SDS011;11200;51.488;6.668;2023-05-10T05:26:09;5.18;;;4.68;;
22070;SDS011;11200;51.488;6.668;2023-05-10T05:28:35;5.03;;;4.25;;
22070;SDS011;11200;51.488;6.668;2023-05-10T05:31:02;5.25;;;4.25;;
22070;SDS011;11200;51.488;6.668;2023-05-10T05:33:29;5.32;;;4.45;;
22070;SDS011;11200;51.488;6.668;2023-05-10T05:35:54;5.90;;;4.80;;
22070;SDS011;11200;51.488;6.668;2023-05-10T05:38:20;6.38;;;5.05;;
22070;SDS011;11200;51.488;6.668;2023-05-10T05:40:45;5.18;;;4.68;;
22070;SDS011;11200;51.488;6.668;2023-05-10T05:43:11;6.38;;;4.85;;
22070;SDS011;11200;51.488;6.668;2023-05-10T05:45:37;6.10;;;4.90;;
22070;SDS011;11200;51.488;6.668;2023-05-10T05:48:02;6.32;;;5.10;;
22070;SDS011;11200;51.488;6.668;2023-05-10T05:50:28;6.85;;;5.15;;
22070;SDS011;11200;51.488;6.668;2023-05-10T05:52:54;6.95;;;5.20;;
22070;SDS011;11200;51.488;6.668;2023-05-10T05:55:20;6.70;;;5.78;;
22070;SDS011;11200;51.488;6.668;2023-05-10T05:57:45;6.45;;;5.50;;
22070;SDS011;11200;51.488;6.668;2023-05-10T06:00:11;6.97;;;5.57;;
22070;SDS011;11200;51.488;6.668;2023-05-10T06:02:37;5.82;;;5.07;;
22070;SDS011;11200;51.488;6.668;2023-05-10T06:05:03;5.75;;;5.15;;
22070;SDS011;11200;51.488;6.668;2023-05-10T06:07:29;7.28;;;5.80;;
22070;SDS011;11200;51.488;6.668;2023-05-10T06:10:00;6.38;;;5.72;;
22070;SDS011;11200;51.488;6.668;2023-05-10T06:12:26;6.70;;;6.00;;
22070;SDS011;11200;51.488;6.668;2023-05-10T06:14:55;7.50;;;6.00;;
22070;SDS011;11200;51.488;6.668;2023-05-10T06:17:20;6.97;;;6.00;;
22070;SDS011;11200;51.488;6.668;2023-05-10T06:19:46;5.75;;;5.15;;
22070;SDS011;11200;51.488;6.668;2023-05-10T06:22:12;7.05;;;6.22;;
22070;SDS011;11200;51.488;6.668;2023-05-10T06:24:39;6.68;;;5.88;;
22070;SDS011;11200;51.488;6.668;2023-05-10T06:27:05;7.78;;;6.35;;
22070;SDS011;11200;51.488;6.668;2023-05-10T06:29:31;7.40;;;6.55;;
22070;SDS011;11200;51.488;6.668;2023-05-10T06:31:57;7.20;;;6.20;;
22070;SDS011;11200;51.488;6.668;2023-05-10T06:34:22;8.50;;;6.30;;
22070;SDS011;11200;51.488;6.668;2023-05-10T06:36:48;7.00;;;6.25;;
22070;SDS011;11200;51.488;6.668;2023-05-10T06:39:16;8.70;;;7.00;;
22070;SDS011;11200;51.488;6.668;2023-05-10T06:41:42;9.15;;;6.88;;
22070;SDS011;11200;51.488;6.668;2023-05-10T06:44:08;10.75;;;7.70;;
22070;SDS011;11200;51.488;6.668;2023-05-10T06:46:33;8.48;;;7.38;;
22070;SDS011;11200;51.488;6.668;2023-05-10T06:48:59;9.10;;;7.65;;
22070;SDS011;11200;51.488;6.668;2023-05-10T06:51:29;9.93;;;7.22;;
22070;SDS011;11200;51.488;6.668;2023-05-10T06:53:55;10.68;;;8.23;;
22070;SDS011;11200;51.488;6.668;2023-05-10T06:56:21;12.98;;;8.93;;
22070;SDS011;11200;51.488;6.668;2023-05-10T06:58:47;10.85;;;8.20;;
22070;SDS011;11200;51.488;6.668;2023-05-10T07:01:13;10.50;;;8.35;;
22070;SDS011;11200;51.488;6.668;2023-05-10T07:03:40;12.32;;;8.57;;
22070;SDS011;11200;51.488;6.668;2023-05-10T07:06:06;12.35;;;10.02;;
22070;SDS011;11200;51.488;6.668;2023-05-10T07:08:32;11.38;;;9.23;;
22070;SDS011;11200;51.488;6.668;2023-05-10T07:11:00;12.13;;;9.40;;
22070;SDS011;11200;51.488;6.668;2023-05-10T07:13:30;11.98;;;8.70;;
22070;SDS011;11200;51.488;6.668;2023-05-10T07:15:56;14.45;;;10.63;;
22070;SDS011;11200;51.488;6.668;2023-05-10T07:18:22;11.48;;;9.00;;
22070;SDS011;11200;51.488;6.668;2023-05-10T07:20:48;11.80;;;9.57;;
22070;SDS011;11200;51.488;6.668;2023-05-10T07:23:13;11.25;;;9.10;;
22070;SDS011;11200;51.488;6.668;2023-05-10T07:25:39;12.10;;;9.63;;
22070;SDS011;11200;51.488;6.668;2023-05-10T07:28:05;12.35;;;8.90;;
22070;SDS011;11200;51.488;6.668;2023-05-10T07:30:30;15.48;;;11.50;;
22070;SDS011;11200;51.488;6.668;2023-05-10T07:32:56;14.90;;;10.48;;
22070;SDS011;11200;51.488;6.668;2023-05-10T07:35:21;16.85;;;11.55;;
22070;SDS011;11200;51.488;6.668;2023-05-10T07:37:47;15.73;;;10.73;;
22070;SDS011;11200;51.488;6.668;2023-05-10T07:40:13;13.07;;;10.07;;
22070;SDS011;11200;51.488;6.668;2023-05-10T07:42:38;12.98;;;10.25;;
22070;SDS011;11200;51.488;6.668;2023-05-10T07:45:04;12.93;;;9.75;;
22070;SDS011;11200;51.488;6.668;2023-05-10T07:47:30;13.68;;;10.40;;
22070;SDS011;11200;51.488;6.668;2023-05-10T07:49:56;12.27;;;10.13;;
22070;SDS011;11200;51.488;6.668;2023-05-10T07:52:23;13.98;;;10.30;;
22070;SDS011;11200;51.488;6.668;2023-05-10T07:54:48;13.48;;;9.68;;
22070;SDS011;11200;51.488;6.668;2023-05-10T07:57:14;13.63;;;10.45;;
22070;SDS011;11200;51.488;6.668;2023-05-10T07:59:42;15.05;;;10.95;;
22070;SDS011;11200;51.488;6.668;2023-05-10T08:02:08;13.48;;;10.18;;
22070;SDS011;11200;51.488;6.668;2023-05-10T08:04:34;15.70;;;11.13;;
22070;SDS011;11200;51.488;6.668;2023-05-10T08:06:59;15.20;;;11.57;;
22070;SDS011;11200;51.488;6.668;2023-05-10T08:09:25;14.60;;;10.48;;
22070;SDS011;11200;51.488;6.668;2023-05-10T08:11:50;14.68;;;11.40;;
22070;SDS011;11200;51.488;6.668;2023-05-10T08:14:16;15.25;;;10.43;;
22070;SDS011;11200;51.488;6.668;2023-05-10T08:16:42;13.95;;;10.48;;
22070;SDS011;11200;51.488;6.668;2023-05-10T08:19:07;14.07;;;10.70;;
22070;SDS011;11200;51.488;6.668;2023-05-10T08:21:33;13.77;;;10.65;;
22070;SDS011;11200;51.488;6.668;2023-05-10T08:23:59;14.40;;;11.15;;
22070;SDS011;11200;51.488;6.668;2023-05-10T08:26:24;14.00;;;10.20;;
22070;SDS011;11200;51.488;6.668;2023-05-10T08:28:50;15.02;;;11.05;;
22070;SDS011;11200;51.488;6.668;2023-05-10T08:31:16;13.98;;;10.80;;
22070;SDS011;11200;51.488;6.668;2023-05-10T08:33:42;13.60;;;11.02;;
22070;SDS011;11200;51.488;6.668;2023-05-10T08:36:08;14.02;;;11.00;;
22070;SDS011;11200;51.488;6.668;2023-05-10T08:38:34;14.82;;;11.00;;
22070;SDS011;11200;51.488;6.668;2023-05-10T08:40:59;13.45;;;10.75;;
22070;SDS011;11200;51.488;6.668;2023-05-10T08:43:27;13.52;;;10.75;;
22070;SDS011;11200;51.488;6.668;2023-05-10T08:45:54;14.00;;;10.88;;
22070;SDS011;11200;51.488;6.668;2023-05-10T08:48:24;13.35;;;10.70;;
22070;SDS011;11200;51.488;6.668;2023-05-10T08:50:50;13.63;;;10.75;;
22070;SDS011;11200;51.488;6.668;2023-05-10T08:53:19;13.77;;;10.00;;
22070;SDS011;11200;51.488;6.668;2023-05-10T08:55:46;12.98;;;10.52;;
22070;SDS011;11200;51.488;6.668;2023-05-10T08:58:12;13.55;;;10.57;;
22070;SDS011;11200;51.488;6.668;2023-05-10T09:00:38;13.68;;;10.93;;
22070;SDS011;11200;51.488;6.668;2023-05-10T09:03:05;13.38;;;10.45;;
22070;SDS011;11200;51.488;6.668;2023-05-10T09:05:31;11.98;;;9.95;;
22070;SDS011;11200;51.488;6.668;2023-05-10T09:07:57;13.25;;;10.52;;
22070;SDS011;11200;51.488;6.668;2023-05-10T09:10:25;12.85;;;10.18;;
22070;SDS011;11200;51.488;6.668;2023-05-10T09:12:53;12.43;;;9.95;;
22070;SDS011;11200;51.488;6.668;2023-05-10T09:15:21;11.05;;;9.38;;
22070;SDS011;11200;51.488;6.668;2023-05-10T09:17:48;13.07;;;9.88;;
22070;SDS011;11200;51.488;6.668;2023-05-10T09:20:14;12.75;;;9.68;;
22070;SDS011;11200;51.488;6.668;2023-05-10T09:22:42;12.23;;;9.77;;
22070;SDS011;11200;51.488;6.668;2023-05-10T09:25:08;11.90;;;9.52;;
22070;SDS011;11200;51.488;6.668;2023-05-10T09:27:39;12.55;;;9.70;;
22070;SDS011;11200;51.488;6.668;2023-05-10T09:30:06;12.32;;;9.30;;
22070;SDS011;11200;51.488;6.668;2023-05-10T09:32:45;12.25;;;9.55;;
22070;SDS011;11200;51.488;6.668;2023-05-10T09:35:16;11.23;;;9.45;;
22070;SDS011;11200;51.488;6.668;2023-05-10T09:37:44;11.45;;;9.18;;
22070;SDS011;11200;51.488;6.668;2023-05-10T09:40:13;13.77;;;10.05;;
22070;SDS011;11200;51.488;6.668;2023-05-10T09:42:41;11.02;;;9.55;;
22070;SDS011;11200;51.488;6.668;2023-05-10T09:45:08;11.68;;;8.80;;
22070;SDS011;11200;51.488;6.668;2023-05-10T09:47:34;12.13;;;9.90;;
22070;SDS011;11200;51.488;6.668;2023-05-10T09:50:01;11.73;;;9.23;;
22070;SDS011;11200;51.488;6.668;2023-05-10T09:52:45;12.70;;;9.77;;
22070;SDS011;11200;51.488;6.668;2023-05-10T09:55:12;12.35;;;9.27;;
22070;SDS011;11200;51.488;6.668;2023-05-10T09:57:37;10.60;;;8.55;;
22070;SDS011;11200;51.488;6.668;2023-05-10T10:00:04;10.93;;;9.07;;
22070;SDS011;11200;51.488;6.668;2023-05-10T10:02:31;13.02;;;9.52;;
22070;SDS011;11200;51.488;6.668;2023-05-10T10:04:57;10.45;;;9.05;;
22070;SDS011;11200;51.488;6.668;2023-05-10T10:07:25;9.95;;;8.50;;
22070;SDS011;11200;51.488;6.668;2023-05-10T10:09:51;11.32;;;8.63;;
22070;SDS011;11200;51.488;6.668;2023-05-10T10:12:20;13.88;;;9.18;;
22070;SDS011;11200;51.488;6.668;2023-05-10T10:14:46;10.93;;;8.65;;
22070;SDS011;11200;51.488;6.668;2023-05-10T10:17:13;12.43;;;9.23;;
22070;SDS011;11200;51.488;6.668;2023-05-10T10:19:39;10.68;;;8.50;;
22070;SDS011;11200;51.488;6.668;2023-05-10T10:22:05;10.07;;;8.10;;
22070;SDS011;11200;51.488;6.668;2023-05-10T10:24:31;8.95;;;7.65;;
22070;SDS011;11200;51.488;6.668;2023-05-10T10:26:59;10.82;;;8.38;;
22070;SDS011;11200;51.488;6.668;2023-05-10T10:29:39;10.75;;;7.45;;
22070;SDS011;11200;51.488;6.668;2023-05-10T10:32:33;9.90;;;7.70;;
22070;SDS011;11200;51.488;6.668;2023-05-10T10:35:24;9.00;;;7.07;;
22070;SDS011;11200;51.488;6.668;2023-05-10T10:37:50;10.50;;;8.02;;
22070;SDS011;11200;51.488;6.668;2023-05-10T10:40:26;7.80;;;6.88;;
22070;SDS011;11200;51.488;6.668;2023-05-10T10:42:53;9.40;;;7.43;;
22070;SDS011;11200;51.488;6.668;2023-05-10T10:45:38;8.93;;;7.60;;
22070;SDS011;11200;51.488;6.668;2023-05-10T10:48:21;8.82;;;7.28;;
22070;SDS011;11200;51.488;6.668;2023-05-10T10:50:48;9.50;;;7.25;;
22070;SDS011;11200;51.488;6.668;2023-05-10T10:53:21;9.40;;;7.40;;
22070;SDS011;11200;51.488;6.668;2023-05-10T10:55:47;9.38;;;7.85;;
22070;SDS011;11200;51.488;6.668;2023-05-10T10:58:28;10.75;;;8.13;;
22070;SDS011;11200;51.488;6.668;2023-05-10T11:01:09;11.57;;;7.85;;
22070;SDS011;11200;51.488;6.668;2023-05-10T11:03:37;9.05;;;7.03;;
22070;SDS011;11200;51.488;6.668;2023-05-10T11:06:02;8.65;;;6.90;;
22070;SDS011;11200;51.488;6.668;2023-05-10T11:08:28;7.35;;;6.63;;
22070;SDS011;11200;51.488;6.668;2023-05-10T11:15:57;10.32;;;8.13;;
22070;SDS011;11200;51.488;6.668;2023-05-10T11:18:28;8.80;;;7.90;;
22070;SDS011;11200;51.488;6.668;2023-05-10T11:20:59;8.15;;;6.85;;
22070;SDS011;11200;51.488;6.668;2023-05-10T11:23:31;7.40;;;6.43;;
22070;SDS011;11200;51.488;6.668;2023-05-10T11:25:59;7.93;;;6.97;;
22070;SDS011;11200;51.488;6.668;2023-05-10T11:28:28;7.70;;;6.75;;
22070;SDS011;11200;51.488;6.668;2023-05-10T11:30:54;7.47;;;6.63;;
22070;SDS011;11200;51.488;6.668;2023-05-10T11:33:20;8.65;;;6.57;;
22070;SDS011;11200;51.488;6.668;2023-05-10T11:35:46;7.80;;;6.45;;
22070;SDS011;11200;51.488;6.668;2023-05-10T11:38:12;6.97;;;5.95;;
22070;SDS011;11200;51.488;6.668;2023-05-10T11:40:38;7.22;;;5.90;;
22070;SDS011;11200;51.488;6.668;2023-05-10T11:43:05;6.10;;;5.38;;
22070;SDS011;11200;51.488;6.668;2023-05-10T11:45:34;6.78;;;5.80;;
22070;SDS011;11200;51.488;6.668;2023-05-10T11:48:04;5.75;;;5.25;;
22070;SDS011;11200;51.488;6.668;2023-05-10T11:50:30;6.15;;;5.32;;
22070;SDS011;11200;51.488;6.668;2023-05-10T11:52:56;5.10;;;4.60;;
22070;SDS011;11200;51.488;6.668;2023-05-10T11:55:23;7.22;;;5.28;;
22070;SDS011;11200;51.488;6.668;2023-05-10T11:57:54;6.43;;;4.78;;
22070;SDS011;11200;51.488;6.668;2023-05-10T12:00:19;5.95;;;5.00;;
22070;SDS011;11200;51.488;6.668;2023-05-10T12:02:46;5.68;;;4.65;;
22070;SDS011;11200;51.488;6.668;2023-05-10T12:05:12;6.28;;;4.35;;
22070;SDS011;11200;51.488;6.668;2023-05-10T12:07:38;5.15;;;4.30;;
22070;SDS011;11200;51.488;6.668;2023-05-10T12:10:08;4.78;;;4.22;;
22070;SDS011;11200;51.488;6.668;2023-05-10T12:15:12;5.05;;;4.30;;
22070;SDS011;11200;51.488;6.668;2023-05-10T12:17:46;5.05;;;4.05;;
22070;SDS011;11200;51.488;6.668;2023-05-10T12:20:19;5.10;;;4.28;;
22070;SDS011;11200;51.488;6.668;2023-05-10T12:22:51;4.93;;;3.80;;
22070;SDS011;11200;51.488;6.668;2023-05-10T12:25:18;5.75;;;4.00;;
22070;SDS011;11200;51.488;6.668;2023-05-10T12:27:52;4.38;;;3.97;;
22070;SDS011;11200;51.488;6.668;2023-05-10T12:30:25;4.47;;;3.85;;
22070;SDS011;11200;51.488;6.668;2023-05-10T12:32:52;4.63;;;3.58;;
22070;SDS011;11200;51.488;6.668;2023-05-10T12:35:19;4.25;;;3.63;;
22070;SDS011;11200;51.488;6.668;2023-05-10T12:37:50;3.85;;;3.45;;
22070;SDS011;11200;51.488;6.668;2023-05-10T12:40:16;3.65;;;3.20;;
22070;SDS011;11200;51.488;6.668;2023-05-10T12:42:41;3.30;;;3.00;;
22070;SDS011;11200;51.488;6.668;2023-05-10T12:45:09;3.35;;;3.05;;
22070;SDS011;11200;51.488;6.668;2023-05-10T12:47:35;3.42;;;3.03;;
22070;SDS011;11200;51.488;6.668;2023-05-10T12:50:02;5.03;;;3.58;;
22070;SDS011;11200;51.488;6.668;2023-05-10T12:52:28;4.03;;;3.22;;
22070;SDS011;11200;51.488;6.668;2023-05-10T12:54:54;4.53;;;3.30;;
22070;SDS011;11200;51.488;6.668;2023-05-10T12:57:20;4.03;;;3.50;;
22070;SDS011;11200;51.488;6.668;2023-05-10T12:59:46;3.83;;;3.35;;
22070;SDS011;11200;51.488;6.668;2023-05-10T13:02:12;3.13;;;2.83;;
22070;SDS011;11200;51.488;6.668;2023-05-10T13:04:39;4.10;;;3.20;;
22070;SDS011;11200;51.488;6.668;2023-05-10T13:07:07;3.70;;;2.78;;
22070;SDS011;11200;51.488;6.668;2023-05-10T13:09:33;3.65;;;3.17;;
22070;SDS011;11200;51.488;6.668;2023-05-10T13:11:58;3.50;;;3.15;;
22070;SDS011;11200;51.488;6.668;2023-05-10T13:14:24;3.58;;;3.10;;
22070;SDS011;11200;51.488;6.668;2023-05-10T13:16:50;3.33;;;3.03;;
22070;SDS011;11200;51.488;6.668;2023-05-10T13:19:16;3.47;;;3.00;;
22070;SDS011;11200;51.488;6.668;2023-05-10T13:21:42;2.85;;;2.58;;
22070;SDS011;11200;51.488;6.668;2023-05-10T13:24:09;2.67;;;2.40;;
22070;SDS011;11200;51.488;6.668;2023-05-10T13:26:40;3.55;;;2.58;;
22070;SDS011;11200;51.488;6.668;2023-05-10T13:29:06;2.35;;;2.15;;
22070;SDS011;11200;51.488;6.668;2023-05-10T13:31:32;3.42;;;2.50;;
22070;SDS011;11200;51.488;6.668;2023-05-10T13:33:58;3.45;;;2.50;;
22070;SDS011;11200;51.488;6.668;2023-05-10T13:36:24;2.88;;;2.50;;
22070;SDS011;11200;51.488;6.668;2023-05-10T13:38:49;3.03;;;2.40;;
22070;SDS011;11200;51.488;6.668;2023-05-10T13:41:15;3.72;;;2.50;;
22070;SDS011;11200;51.488;6.668;2023-05-10T13:43:40;2.80;;;2.28;;
22070;SDS011;11200;51.488;6.668;2023-05-10T13:46:06;3.17;;;2.60;;
22070;SDS011;11200;51.488;6.668;2023-05-10T13:48:32;2.75;;;2.50;;
22070;SDS011;11200;51.488;6.668;2023-05-10T13:50:58;2.67;;;2.47;;
22070;SDS011;11200;51.488;6.668;2023-05-10T13:53:23;2.60;;;2.40;;
22070;SDS011;11200;51.488;6.668;2023-05-10T13:55:49;3.63;;;2.60;;
22070;SDS011;11200;51.488;6.668;2023-05-10T13:58:15;2.63;;;2.33;;
22070;SDS011;11200;51.488;6.668;2023-05-10T14:00:40;3.00;;;2.70;;
22070;SDS011;11200;51.488;6.668;2023-05-10T14:03:09;3.00;;;2.70;;
22070;SDS011;11200;51.488;6.668;2023-05-10T14:05:36;3.35;;;3.05;;
22070;SDS011;11200;51.488;6.668;2023-05-10T14:08:02;3.65;;;2.95;;
22070;SDS011;11200;51.488;6.668;2023-05-10T14:10:27;3.47;;;2.60;;
22070;SDS011;11200;51.488;6.668;2023-05-10T14:12:53;3.33;;;2.60;;
22070;SDS011;11200;51.488;6.668;2023-05-10T14:15:19;4.18;;;2.85;;
22070;SDS011;11200;51.488;6.668;2023-05-10T14:17:44;3.35;;;3.00;;
22070;SDS011;11200;51.488;6.668;2023-05-10T14:20:10;3.90;;;3.50;;
22070;SDS011;11200;51.488;6.668;2023-05-10T14:22:36;2.88;;;2.58;;
22070;SDS011;11200;51.488;6.668;2023-05-10T14:25:02;3.00;;;2.70;;
22070;SDS011;11200;51.488;6.668;2023-05-10T14:27:31;4.60;;;3.30;;
22070;SDS011;11200;51.488;6.668;2023-05-10T14:29:57;3.13;;;2.83;;
22070;SDS011;11200;51.488;6.668;2023-05-10T14:32:22;4.50;;;3.65;;
22070;SDS011;11200;51.488;6.668;2023-05-10T14:34:48;3.25;;;2.80;;
22070;SDS011;11200;51.488;6.668;2023-05-10T14:37:14;4.65;;;3.47;;
22070;SDS011;11200;51.488;6.668;2023-05-10T14:39:40;4.25;;;3.58;;
22070;SDS011;11200;51.488;6.668;2023-05-10T14:42:07;4.57;;;3.90;;
22070;SDS011;11200;51.488;6.668;2023-05-10T14:44:33;3.17;;;2.88;;
22070;SDS011;11200;51.488;6.668;2023-05-10T14:47:02;4.82;;;4.43;;
22070;SDS011;11200;51.488;6.668;2023-05-10T14:49:28;4.40;;;4.00;;
22070;SDS011;11200;51.488;6.668;2023-05-10T14:51:54;5.80;;;5.00;;
22070;SDS011;11200;51.488;6.668;2023-05-10T14:54:19;4.00;;;3.60;;
22070;SDS011;11200;51.488;6.668;2023-05-10T14:56:45;5.00;;;4.50;;
22070;SDS011;11200;51.488;6.668;2023-05-10T14:59:14;4.80;;;3.75;;
22070;SDS011;11200;51.488;6.668;2023-05-10T15:01:43;4.43;;;4.03;;
22070;SDS011;11200;51.488;6.668;2023-05-10T15:04:10;5.07;;;4.50;;
22070;SDS011;11200;51.488;6.668;2023-05-10T15:06:37;4.50;;;4.10;;
22070;SDS011;11200;51.488;6.668;2023-05-10T15:09:03;4.50;;;3.60;;
22070;SDS011;11200;51.488;6.668;2023-05-10T15:11:30;3.28;;;2.97;;
22070;SDS011;11200;51.488;6.668;2023-05-10T15:13:57;3.20;;;2.90;;
22070;SDS011;11200;51.488;6.668;2023-05-10T15:16:23;3.00;;;2.60;;
22070;SDS011;11200;51.488;6.668;2023-05-10T15:18:49;2.95;;;2.55;;